sensor_id;sensor_type;location;lat;lon;timestamp;P1;durP1;ratioP1;P2;durP2;ratioP2
45867;SDS011;31582;45.490;7.860;2022-12-29T00:00:08;1.00;;;1.00;;
45867;SDS011;31582;45.490;7.860;2022-12-29T00:02:36;1.27;;;1.17;;
45867;SDS011;31582;45.490;7.860;2022-12-29T00:05:04;1.25;;;1.10;;
45867;SDS011;31582;45.490;7.860;2022-12-29T00:07:31;1.20;;;1.20;;
45867;SDS011;31582;45.490;7.860;2022-12-29T00:09:58;1.30;;;1.20;;
45867;SDS011;31582;45.490;7.860;2022-12-29T00:12:27;1.00;;;1.00;;
45867;SDS011;31582;45.490;7.860;2022-12-29T00:15:14;1.00;;;1.00;;
45867;SDS011;31582;45.490;7.860;2022-12-29T00:18:00;1.20;;;1.13;;
45867;SDS011;31582;45.490;7.860;2022-12-29T00:20:27;1.00;;;1.00;;
45867;SDS011;31582;45.490;7.860;2022-12-29T00:23:12;1.10;;;1.10;;
45867;SDS011;31582;45.490;7.860;2022-12-29T00:25:57;1.05;;;1.05;;
45867;SDS011;31582;45.490;7.860;2022-12-29T00:28:47;1.20;;;1.20;;
45867;SDS011;31582;45.490;7.860;2022-12-29T00:31:37;0.90;;;0.90;;
45867;SDS011;31582;45.490;7.860;2022-12-29T00:34:22;1.20;;;1.10;;
45867;SDS011;31582;45.490;7.860;2022-12-29T00:37:07;1.10;;;1.10;;
45867;SDS011;31582;45.490;7.860;2022-12-29T00:39:34;1.00;;;1.00;;
45867;SDS011;31582;45.490;7.860;2022-12-29T00:42:20;1.13;;;1.10;;
45867;SDS011;31582;45.490;7.860;2022-12-29T00:45:06;1.20;;;1.20;;
45867;SDS011;31582;45.490;7.860;2022-12-29T00:47:33;0.90;;;0.90;;
45867;SDS011;31582;45.490;7.860;2022-12-29T00:49:59;1.00;;;0.90;;
45867;SDS011;31582;45.490;7.860;2022-12-29T00:52:26;0.80;;;0.80;;
45867;SDS011;31582;45.490;7.860;2022-12-29T00:54:53;0.90;;;0.90;;
45867;SDS011;31582;45.490;7.860;2022-12-29T00:57:20;0.88;;;0.85;;
45867;SDS011;31582;45.490;7.860;2022-12-29T00:59:47;1.30;;;0.90;;
45867;SDS011;31582;45.490;7.860;2022-12-29T01:02:14;1.00;;;0.90;;
45867;SDS011;31582;45.490;7.860;2022-12-29T01:04:41;0.80;;;0.80;;
45867;SDS011;31582;45.490;7.860;2022-12-29T01:07:09;0.90;;;0.90;;
45867;SDS011;31582;45.490;7.860;2022-12-29T01:09:35;0.90;;;0.90;;
45867;SDS011;31582;45.490;7.860;2022-12-29T01:12:21;0.95;;;0.95;;
45867;SDS011;31582;45.490;7.860;2022-12-29T01:15:07;0.90;;;0.90;;
45867;SDS011;31582;45.490;7.860;2022-12-29T01:17:35;1.00;;;0.90;;
45867;SDS011;31582;45.490;7.860;2022-12-29T01:20:02;0.80;;;0.80;;
45867;SDS011;31582;45.490;7.860;2022-12-29T01:22:30;0.80;;;0.80;;
45867;SDS011;31582;45.490;7.860;2022-12-29T01:24:57;0.70;;;0.70;;
45867;SDS011;31582;45.490;7.860;2022-12-29T01:27:24;0.85;;;0.85;;
45867;SDS011;31582;45.490;7.860;2022-12-29T01:29:50;0.80;;;0.80;;
45867;SDS011;31582;45.490;7.860;2022-12-29T01:32:17;0.70;;;0.70;;
45867;SDS011;31582;45.490;7.860;2022-12-29T01:34:44;0.70;;;0.70;;
45867;SDS011;31582;45.490;7.860;2022-12-29T01:37:11;0.80;;;0.80;;
45867;SDS011;31582;45.490;7.860;2022-12-29T01:39:39;0.90;;;0.90;;
45867;SDS011;31582;45.490;7.860;2022-12-29T01:42:08;0.88;;;0.88;;
45867;SDS011;31582;45.490;7.860;2022-12-29T01:44:50;0.90;;;0.90;;
45867;SDS011;31582;45.490;7.860;2022-12-29T01:47:25;0.70;;;0.70;;
45867;SDS011;31582;45.490;7.860;2022-12-29T01:49:57;0.70;;;0.70;;
45867;SDS011;31582;45.490;7.860;2022-12-29T01:52:28;0.90;;;0.90;;
45867;SDS011;31582;45.490;7.860;2022-12-29T01:54:58;0.77;;;0.77;;
45867;SDS011;31582;45.490;7.860;2022-12-29T01:57:30;0.77;;;0.77;;
45867;SDS011;31582;45.490;7.860;2022-12-29T02:00:02;0.80;;;0.80;;
45867;SDS011;31582;45.490;7.860;2022-12-29T02:02:37;1.50;;;0.80;;
45867;SDS011;31582;45.490;7.860;2022-12-29T03:56:45;0.70;;;0.70;;
45867;SDS011;31582;45.490;7.860;2022-12-29T03:59:12;0.73;;;0.73;;
45867;SDS011;31582;45.490;7.860;2022-12-29T04:01:39;0.75;;;0.75;;
45867;SDS011;31582;45.490;7.860;2022-12-29T04:04:06;0.60;;;0.60;;
45867;SDS011;31582;45.490;7.860;2022-12-29T04:06:33;0.75;;;0.75;;
45867;SDS011;31582;45.490;7.860;2022-12-29T04:09:00;0.70;;;0.70;;
45867;SDS011;31582;45.490;7.860;2022-12-29T04:11:27;0.50;;;0.50;;
45867;SDS011;31582;45.490;7.860;2022-12-29T04:13:58;0.75;;;0.75;;
45867;SDS011;31582;45.490;7.860;2022-12-29T04:16:25;0.75;;;0.75;;
45867;SDS011;31582;45.490;7.860;2022-12-29T04:18:53;0.77;;;0.77;;
45867;SDS011;31582;45.490;7.860;2022-12-29T04:21:20;0.82;;;0.82;;
45867;SDS011;31582;45.490;7.860;2022-12-29T04:23:48;0.80;;;0.80;;
45867;SDS011;31582;45.490;7.860;2022-12-29T04:26:16;0.70;;;0.70;;
45867;SDS011;31582;45.490;7.860;2022-12-29T04:28:43;0.70;;;0.70;;
45867;SDS011;31582;45.490;7.860;2022-12-29T04:31:10;0.73;;;0.73;;
45867;SDS011;31582;45.490;7.860;2022-12-29T04:33:37;0.70;;;0.70;;
45867;SDS011;31582;45.490;7.860;2022-12-29T04:36:06;0.90;;;0.70;;
45867;SDS011;31582;45.490;7.860;2022-12-29T04:38:33;0.80;;;0.80;;
45867;SDS011;31582;45.490;7.860;2022-12-29T04:41:00;0.77;;;0.77;;
45867;SDS011;31582;45.490;7.860;2022-12-29T04:43:27;0.80;;;0.80;;
45867;SDS011;31582;45.490;7.860;2022-12-29T04:45:55;0.60;;;0.60;;
45867;SDS011;31582;45.490;7.860;2022-12-29T04:48:22;0.70;;;0.70;;
45867;SDS011;31582;45.490;7.860;2022-12-29T04:50:50;0.70;;;0.70;;
45867;SDS011;31582;45.490;7.860;2022-12-29T04:53:18;0.70;;;0.70;;
45867;SDS011;31582;45.490;7.860;2022-12-29T04:55:48;0.77;;;0.77;;
45867;SDS011;31582;45.490;7.860;2022-12-29T04:58:16;0.70;;;0.70;;
45867;SDS011;31582;45.490;7.860;2022-12-29T05:00:48;0.70;;;0.70;;
45867;SDS011;31582;45.490;7.860;2022-12-29T05:03:16;0.80;;;0.80;;
45867;SDS011;31582;45.490;7.860;2022-12-29T05:05:43;0.70;;;0.70;;
45867;SDS011;31582;45.490;7.860;2022-12-29T05:08:10;0.70;;;0.70;;
45867;SDS011;31582;45.490;7.860;2022-12-29T05:10:37;0.70;;;0.70;;
45867;SDS011;31582;45.490;7.860;2022-12-29T05:13:04;0.70;;;0.70;;
45867;SDS011;31582;45.490;7.860;2022-12-29T05:15:32;0.70;;;0.70;;
45867;SDS011;31582;45.490;7.860;2022-12-29T05:17:59;0.82;;;0.82;;
45867;SDS011;31582;45.490;7.860;2022-12-29T05:20:27;0.70;;;0.70;;
45867;SDS011;31582;45.490;7.860;2022-12-29T05:22:54;0.70;;;0.70;;
45867;SDS011;31582;45.490;7.860;2022-12-29T05:25:21;0.80;;;0.80;;
45867;SDS011;31582;45.490;7.860;2022-12-29T05:27:48;0.90;;;0.90;;
45867;SDS011;31582;45.490;7.860;2022-12-29T05:30:15;0.63;;;0.63;;
45867;SDS011;31582;45.490;7.860;2022-12-29T05:32:43;0.70;;;0.70;;
45867;SDS011;31582;45.490;7.860;2022-12-29T05:35:10;0.63;;;0.63;;
45867;SDS011;31582;45.490;7.860;2022-12-29T05:37:37;0.75;;;0.70;;
45867;SDS011;31582;45.490;7.860;2022-12-29T05:40:04;0.60;;;0.60;;
45867;SDS011;31582;45.490;7.860;2022-12-29T05:42:32;0.73;;;0.73;;
45867;SDS011;31582;45.490;7.860;2022-12-29T05:44:59;1.00;;;0.70;;
45867;SDS011;31582;45.490;7.860;2022-12-29T05:47:28;0.80;;;0.80;;
45867;SDS011;31582;45.490;7.860;2022-12-29T05:49:56;0.70;;;0.70;;
45867;SDS011;31582;45.490;7.860;2022-12-29T05:52:23;0.68;;;0.68;;
45867;SDS011;31582;45.490;7.860;2022-12-29T05:54:50;0.90;;;0.90;;
45867;SDS011;31582;45.490;7.860;2022-12-29T05:57:17;0.77;;;0.77;;
45867;SDS011;31582;45.490;7.860;2022-12-29T05:59:43;0.73;;;0.73;;
45867;SDS011;31582;45.490;7.860;2022-12-29T06:02:11;0.90;;;0.90;;
45867;SDS011;31582;45.490;7.860;2022-12-29T06:04:38;0.73;;;0.73;;
45867;SDS011;31582;45.490;7.860;2022-12-29T06:07:05;0.80;;;0.80;;
45867;SDS011;31582;45.490;7.860;2022-12-29T06:09:32;0.80;;;0.80;;
45867;SDS011;31582;45.490;7.860;2022-12-29T06:11:59;0.80;;;0.80;;
45867;SDS011;31582;45.490;7.860;2022-12-29T06:14:27;0.98;;;0.75;;
45867;SDS011;31582;45.490;7.860;2022-12-29T06:16:54;0.82;;;0.82;;
45867;SDS011;31582;45.490;7.860;2022-12-29T06:19:22;0.70;;;0.70;;
45867;SDS011;31582;45.490;7.860;2022-12-29T06:21:49;0.80;;;0.80;;
45867;SDS011;31582;45.490;7.860;2022-12-29T06:24:17;0.77;;;0.77;;
45867;SDS011;31582;45.490;7.860;2022-12-29T06:26:45;0.80;;;0.80;;
45867;SDS011;31582;45.490;7.860;2022-12-29T06:29:12;0.90;;;0.73;;
45867;SDS011;31582;45.490;7.860;2022-12-29T06:31:44;0.88;;;0.88;;
45867;SDS011;31582;45.490;7.860;2022-12-29T06:34:12;0.85;;;0.85;;
45867;SDS011;31582;45.490;7.860;2022-12-29T06:36:39;0.65;;;0.65;;
45867;SDS011;31582;45.490;7.860;2022-12-29T06:39:06;0.70;;;0.70;;
45867;SDS011;31582;45.490;7.860;2022-12-29T06:41:33;0.90;;;0.90;;
45867;SDS011;31582;45.490;7.860;2022-12-29T06:44:02;0.80;;;0.80;;
45867;SDS011;31582;45.490;7.860;2022-12-29T06:46:29;0.70;;;0.70;;
45867;SDS011;31582;45.490;7.860;2022-12-29T06:48:56;0.82;;;0.82;;
45867;SDS011;31582;45.490;7.860;2022-12-29T06:51:25;0.80;;;0.80;;
45867;SDS011;31582;45.490;7.860;2022-12-29T06:53:53;0.80;;;0.80;;
45867;SDS011;31582;45.490;7.860;2022-12-29T06:56:20;0.70;;;0.70;;
45867;SDS011;31582;45.490;7.860;2022-12-29T06:58:50;0.70;;;0.70;;
45867;SDS011;31582;45.490;7.860;2022-12-29T07:01:17;0.68;;;0.68;;
45867;SDS011;31582;45.490;7.860;2022-12-29T07:03:44;0.98;;;0.98;;
45867;SDS011;31582;45.490;7.860;2022-12-29T07:06:15;0.90;;;0.80;;
45867;SDS011;31582;45.490;7.860;2022-12-29T07:08:42;0.70;;;0.70;;
45867;SDS011;31582;45.490;7.860;2022-12-29T07:11:09;0.80;;;0.80;;
45867;SDS011;31582;45.490;7.860;2022-12-29T07:13:36;0.80;;;0.80;;
45867;SDS011;31582;45.490;7.860;2022-12-29T07:16:07;0.90;;;0.90;;
45867;SDS011;31582;45.490;7.860;2022-12-29T07:18:37;0.90;;;0.90;;
45867;SDS011;31582;45.490;7.860;2022-12-29T07:21:04;0.90;;;0.90;;
45867;SDS011;31582;45.490;7.860;2022-12-29T07:23:32;0.85;;;0.85;;
45867;SDS011;31582;45.490;7.860;2022-12-29T07:26:06;0.90;;;0.90;;
45867;SDS011;31582;45.490;7.860;2022-12-29T07:28:34;0.90;;;0.90;;
45867;SDS011;31582;45.490;7.860;2022-12-29T07:31:01;0.70;;;0.70;;
45867;SDS011;31582;45.490;7.860;2022-12-29T07:33:29;0.80;;;0.80;;
45867;SDS011;31582;45.490;7.860;2022-12-29T07:35:56;0.80;;;0.80;;
45867;SDS011;31582;45.490;7.860;2022-12-29T07:38:24;0.80;;;0.80;;
45867;SDS011;31582;45.490;7.860;2022-12-29T07:40:51;0.75;;;0.75;;
45867;SDS011;31582;45.490;7.860;2022-12-29T07:43:24;0.90;;;0.90;;
45867;SDS011;31582;45.490;7.860;2022-12-29T07:45:52;0.80;;;0.80;;
45867;SDS011;31582;45.490;7.860;2022-12-29T07:48:19;0.80;;;0.80;;
45867;SDS011;31582;45.490;7.860;2022-12-29T07:50:46;0.70;;;0.70;;
45867;SDS011;31582;45.490;7.860;2022-12-29T07:53:13;0.70;;;0.70;;
45867;SDS011;31582;45.490;7.860;2022-12-29T07:55:40;0.70;;;0.70;;
45867;SDS011;31582;45.490;7.860;2022-12-29T07:58:07;0.80;;;0.80;;
45867;SDS011;31582;45.490;7.860;2022-12-29T08:00:34;0.80;;;0.80;;
45867;SDS011;31582;45.490;7.860;2022-12-29T08:03:01;1.10;;;1.00;;
45867;SDS011;31582;45.490;7.860;2022-12-29T08:05:30;0.80;;;0.80;;
45867;SDS011;31582;45.490;7.860;2022-12-29T08:07:59;0.80;;;0.80;;
45867;SDS011;31582;45.490;7.860;2022-12-29T08:10:27;0.80;;;0.80;;
45867;SDS011;31582;45.490;7.860;2022-12-29T08:12:57;0.80;;;0.80;;
45867;SDS011;31582;45.490;7.860;2022-12-29T08:15:25;0.87;;;0.87;;
45867;SDS011;31582;45.490;7.860;2022-12-29T08:17:58;0.82;;;0.82;;
45867;SDS011;31582;45.490;7.860;2022-12-29T08:20:27;0.80;;;0.80;;
45867;SDS011;31582;45.490;7.860;2022-12-29T08:22:53;0.75;;;0.75;;
45867;SDS011;31582;45.490;7.860;2022-12-29T08:25:23;0.80;;;0.70;;
45867;SDS011;31582;45.490;7.860;2022-12-29T08:27:53;0.75;;;0.75;;
45867;SDS011;31582;45.490;7.860;2022-12-29T08:30:21;0.80;;;0.70;;
45867;SDS011;31582;45.490;7.860;2022-12-29T08:32:49;0.70;;;0.70;;
45867;SDS011;31582;45.490;7.860;2022-12-29T08:35:17;0.70;;;0.70;;
45867;SDS011;31582;45.490;7.860;2022-12-29T08:37:43;0.60;;;0.60;;
45867;SDS011;31582;45.490;7.860;2022-12-29T08:40:12;0.65;;;0.65;;
45867;SDS011;31582;45.490;7.860;2022-12-29T08:42:40;0.65;;;0.65;;
45867;SDS011;31582;45.490;7.860;2022-12-29T08:45:07;0.85;;;0.70;;
45867;SDS011;31582;45.490;7.860;2022-12-29T08:47:35;0.65;;;0.65;;
45867;SDS011;31582;45.490;7.860;2022-12-29T08:50:03;0.63;;;0.63;;
45867;SDS011;31582;45.490;7.860;2022-12-29T08:52:30;0.65;;;0.65;;
45867;SDS011;31582;45.490;7.860;2022-12-29T08:54:57;0.60;;;0.60;;
45867;SDS011;31582;45.490;7.860;2022-12-29T08:57:24;0.70;;;0.70;;
45867;SDS011;31582;45.490;7.860;2022-12-29T08:59:51;0.60;;;0.60;;
45867;SDS011;31582;45.490;7.860;2022-12-29T09:02:18;0.70;;;0.70;;
45867;SDS011;31582;45.490;7.860;2022-12-29T09:04:50;0.70;;;0.70;;
45867;SDS011;31582;45.490;7.860;2022-12-29T09:07:17;0.60;;;0.60;;
45867;SDS011;31582;45.490;7.860;2022-12-29T09:09:44;0.70;;;0.70;;
45867;SDS011;31582;45.490;7.860;2022-12-29T09:12:11;0.80;;;0.80;;
45867;SDS011;31582;45.490;7.860;2022-12-29T09:14:38;0.60;;;0.60;;
45867;SDS011;31582;45.490;7.860;2022-12-29T09:17:05;0.80;;;0.80;;
45867;SDS011;31582;45.490;7.860;2022-12-29T09:19:50;0.85;;;0.70;;
45867;SDS011;31582;45.490;7.860;2022-12-29T09:22:17;0.70;;;0.70;;
45867;SDS011;31582;45.490;7.860;2022-12-29T09:24:44;0.80;;;0.80;;
45867;SDS011;31582;45.490;7.860;2022-12-29T09:27:11;1.13;;;0.70;;
45867;SDS011;31582;45.490;7.860;2022-12-29T09:29:38;0.70;;;0.70;;
45867;SDS011;31582;45.490;7.860;2022-12-29T09:32:05;0.70;;;0.70;;
45867;SDS011;31582;45.490;7.860;2022-12-29T09:34:40;0.90;;;0.90;;
45867;SDS011;31582;45.490;7.860;2022-12-29T09:37:07;1.20;;;1.10;;
45867;SDS011;31582;45.490;7.860;2022-12-29T09:39:34;0.83;;;0.83;;
45867;SDS011;31582;45.490;7.860;2022-12-29T09:47:13;0.88;;;0.80;;
45867;SDS011;31582;45.490;7.860;2022-12-29T09:53:24;0.90;;;0.90;;
45867;SDS011;31582;45.490;7.860;2022-12-29T09:55:38;0.90;;;0.90;;
45867;SDS011;31582;45.490;7.860;2022-12-29T09:58:16;0.90;;;0.90;;
45867;SDS011;31582;45.490;7.860;2022-12-29T10:06:19;0.63;;;0.63;;
45867;SDS011;31582;45.490;7.860;2022-12-29T10:09:36;0.70;;;0.70;;
45867;SDS011;31582;45.490;7.860;2022-12-29T10:12:30;0.77;;;0.70;;
45867;SDS011;31582;45.490;7.860;2022-12-29T10:21:16;0.90;;;0.80;;
45867;SDS011;31582;45.490;7.860;2022-12-29T10:23:54;0.80;;;0.80;;
45867;SDS011;31582;45.490;7.860;2022-12-29T10:26:29;0.80;;;0.80;;
45867;SDS011;31582;45.490;7.860;2022-12-29T10:29:03;0.80;;;0.80;;
45867;SDS011;31582;45.490;7.860;2022-12-29T10:32:06;0.90;;;0.90;;
45867;SDS011;31582;45.490;7.860;2022-12-29T10:34:39;1.00;;;0.70;;
45867;SDS011;31582;45.490;7.860;2022-12-29T10:39:59;0.70;;;0.70;;
45867;SDS011;31582;45.490;7.860;2022-12-29T10:42:36;0.73;;;0.70;;
45867;SDS011;31582;45.490;7.860;2022-12-29T10:45:12;0.70;;;0.70;;
45867;SDS011;31582;45.490;7.860;2022-12-29T10:47:45;0.70;;;0.70;;
45867;SDS011;31582;45.490;7.860;2022-12-29T10:50:25;0.73;;;0.73;;
45867;SDS011;31582;45.490;7.860;2022-12-29T10:52:56;0.70;;;0.70;;
45867;SDS011;31582;45.490;7.860;2022-12-29T10:55:32;0.70;;;0.70;;
45867;SDS011;31582;45.490;7.860;2022-12-29T10:58:04;1.20;;;0.73;;
45867;SDS011;31582;45.490;7.860;2022-12-29T11:00:33;0.77;;;0.77;;
45867;SDS011;31582;45.490;7.860;2022-12-29T11:08:42;0.70;;;0.70;;
45867;SDS011;31582;45.490;7.860;2022-12-29T11:11:21;0.80;;;0.80;;
45867;SDS011;31582;45.490;7.860;2022-12-29T11:14:19;0.80;;;0.80;;
45867;SDS011;31582;45.490;7.860;2022-12-29T11:16:59;0.90;;;0.80;;
45867;SDS011;31582;45.490;7.860;2022-12-29T11:19:28;0.75;;;0.75;;
45867;SDS011;31582;45.490;7.860;2022-12-29T11:24:52;0.60;;;0.60;;
45867;SDS011;31582;45.490;7.860;2022-12-29T11:27:24;0.70;;;0.70;;
45867;SDS011;31582;45.490;7.860;2022-12-29T11:29:53;0.70;;;0.70;;
45867;SDS011;31582;45.490;7.860;2022-12-29T11:32:27;0.60;;;0.60;;
45867;SDS011;31582;45.490;7.860;2022-12-29T11:34:58;0.60;;;0.60;;
45867;SDS011;31582;45.490;7.860;2022-12-29T11:37:29;2.70;;;0.65;;
45867;SDS011;31582;45.490;7.860;2022-12-29T11:45:31;0.60;;;0.60;;
45867;SDS011;31582;45.490;7.860;2022-12-29T11:48:05;0.70;;;0.70;;
45867;SDS011;31582;45.490;7.860;2022-12-29T11:50:36;0.60;;;0.60;;
45867;SDS011;31582;45.490;7.860;2022-12-29T11:53:22;0.60;;;0.60;;
45867;SDS011;31582;45.490;7.860;2022-12-29T11:55:57;0.80;;;0.80;;
45867;SDS011;31582;45.490;7.860;2022-12-29T11:58:31;1.10;;;0.80;;
45867;SDS011;31582;45.490;7.860;2022-12-29T12:01:05;0.60;;;0.60;;
45867;SDS011;31582;45.490;7.860;2022-12-29T12:03:41;0.60;;;0.60;;
45867;SDS011;31582;45.490;7.860;2022-12-29T12:06:16;0.70;;;0.70;;
45867;SDS011;31582;45.490;7.860;2022-12-29T12:08:47;0.75;;;0.75;;
45867;SDS011;31582;45.490;7.860;2022-12-29T12:11:22;0.75;;;0.75;;
45867;SDS011;31582;45.490;7.860;2022-12-29T12:14:04;0.70;;;0.70;;
45867;SDS011;31582;45.490;7.860;2022-12-29T12:16:47;0.75;;;0.75;;
45867;SDS011;31582;45.490;7.860;2022-12-29T12:22:19;0.50;;;0.50;;
45867;SDS011;31582;45.490;7.860;2022-12-29T12:24:56;0.50;;;0.50;;
45867;SDS011;31582;45.490;7.860;2022-12-29T12:27:29;0.50;;;0.50;;
45867;SDS011;31582;45.490;7.860;2022-12-29T12:30:15;0.70;;;0.70;;
45867;SDS011;31582;45.490;7.860;2022-12-29T12:41:07;0.57;;;0.50;;
45867;SDS011;31582;45.490;7.860;2022-12-29T12:55:28;0.47;;;0.47;;
45867;SDS011;31582;45.490;7.860;2022-12-29T13:04:26;0.75;;;0.65;;
45867;SDS011;31582;45.490;7.860;2022-12-29T13:13:06;0.60;;;0.60;;
45867;SDS011;31582;45.490;7.860;2022-12-29T13:23:58;0.90;;;0.60;;
45867;SDS011;31582;45.490;7.860;2022-12-29T13:32:38;1.40;;;1.30;;
45867;SDS011;31582;45.490;7.860;2022-12-29T13:35:23;1.13;;;1.13;;
45867;SDS011;31582;45.490;7.860;2022-12-29T13:40:38;1.20;;;1.00;;
45867;SDS011;31582;45.490;7.860;2022-12-29T13:43:09;1.48;;;1.38;;
45867;SDS011;31582;45.490;7.860;2022-12-29T13:45:38;1.23;;;1.13;;
45867;SDS011;31582;45.490;7.860;2022-12-29T13:48:10;0.93;;;0.93;;
45867;SDS011;31582;45.490;7.860;2022-12-29T13:50:48;0.98;;;0.98;;
45867;SDS011;31582;45.490;7.860;2022-12-29T13:56:36;0.80;;;0.80;;
45867;SDS011;31582;45.490;7.860;2022-12-29T13:59:26;1.10;;;0.90;;
45867;SDS011;31582;45.490;7.860;2022-12-29T14:04:59;0.98;;;0.98;;
45867;SDS011;31582;45.490;7.860;2022-12-29T14:07:28;1.00;;;1.00;;
45867;SDS011;31582;45.490;7.860;2022-12-29T14:10:01;1.10;;;1.00;;
45867;SDS011;31582;45.490;7.860;2022-12-29T14:12:41;1.03;;;1.03;;
45867;SDS011;31582;45.490;7.860;2022-12-29T14:17:37;1.20;;;1.20;;
45867;SDS011;31582;45.490;7.860;2022-12-29T14:20:06;1.50;;;1.40;;
45867;SDS011;31582;45.490;7.860;2022-12-29T14:22:57;1.30;;;1.20;;
45867;SDS011;31582;45.490;7.860;2022-12-29T14:28:24;1.63;;;1.50;;
45867;SDS011;31582;45.490;7.860;2022-12-29T14:30:54;1.40;;;1.30;;
45867;SDS011;31582;45.490;7.860;2022-12-29T14:33:27;2.38;;;2.17;;
45867;SDS011;31582;45.490;7.860;2022-12-29T14:35:56;1.33;;;1.30;;
45867;SDS011;31582;45.490;7.860;2022-12-29T14:38:31;1.65;;;1.55;;
45867;SDS011;31582;45.490;7.860;2022-12-29T14:49:27;1.60;;;1.50;;
45867;SDS011;31582;45.490;7.860;2022-12-29T14:52:16;1.50;;;1.40;;
45867;SDS011;31582;45.490;7.860;2022-12-29T14:57:34;1.50;;;1.40;;
45867;SDS011;31582;45.490;7.860;2022-12-29T15:02:52;1.63;;;1.52;;
45867;SDS011;31582;45.490;7.860;2022-12-29T15:05:32;1.70;;;1.60;;
45867;SDS011;31582;45.490;7.860;2022-12-29T15:08:06;1.43;;;1.33;;
45867;SDS011;31582;45.490;7.860;2022-12-29T15:10:56;1.80;;;1.70;;
45867;SDS011;31582;45.490;7.860;2022-12-29T15:13:35;1.90;;;1.80;;
45867;SDS011;31582;45.490;7.860;2022-12-29T15:16:05;1.73;;;1.63;;
45867;SDS011;31582;45.490;7.860;2022-12-29T15:18:49;1.40;;;1.35;;
45867;SDS011;31582;45.490;7.860;2022-12-29T15:21:16;1.88;;;1.77;;
45867;SDS011;31582;45.490;7.860;2022-12-29T15:23:47;1.77;;;1.67;;
45867;SDS011;31582;45.490;7.860;2022-12-29T15:26:16;1.30;;;1.20;;
45867;SDS011;31582;45.490;7.860;2022-12-29T15:28:50;1.00;;;1.00;;
45867;SDS011;31582;45.490;7.860;2022-12-29T15:31:19;1.05;;;1.05;;
45867;SDS011;31582;45.490;7.860;2022-12-29T15:34:02;1.05;;;1.05;;
45867;SDS011;31582;45.490;7.860;2022-12-29T15:36:37;1.50;;;1.40;;
45867;SDS011;31582;45.490;7.860;2022-12-29T15:45:12;1.60;;;1.50;;
45867;SDS011;31582;45.490;7.860;2022-12-29T15:47:41;1.88;;;1.77;;
45867;SDS011;31582;45.490;7.860;2022-12-29T15:52:52;1.65;;;1.55;;
45867;SDS011;31582;45.490;7.860;2022-12-29T15:55:30;1.88;;;1.77;;
45867;SDS011;31582;45.490;7.860;2022-12-29T15:58:01;2.00;;;1.90;;
45867;SDS011;31582;45.490;7.860;2022-12-29T16:00:31;1.45;;;1.40;;
45867;SDS011;31582;45.490;7.860;2022-12-29T16:03:01;1.58;;;1.48;;
45867;SDS011;31582;45.490;7.860;2022-12-29T16:05:34;2.08;;;1.98;;
45867;SDS011;31582;45.490;7.860;2022-12-29T16:08:04;2.45;;;2.25;;
45867;SDS011;31582;45.490;7.860;2022-12-29T16:10:47;1.80;;;1.70;;
45867;SDS011;31582;45.490;7.860;2022-12-29T16:15:45;2.03;;;1.92;;
45867;SDS011;31582;45.490;7.860;2022-12-29T16:18:20;2.10;;;2.00;;
45867;SDS011;31582;45.490;7.860;2022-12-29T16:20:52;2.10;;;2.00;;
45867;SDS011;31582;45.490;7.860;2022-12-29T16:23:22;2.50;;;2.40;;
45867;SDS011;31582;45.490;7.860;2022-12-29T16:25:52;2.05;;;1.95;;
45867;SDS011;31582;45.490;7.860;2022-12-29T16:28:21;2.45;;;2.28;;
45867;SDS011;31582;45.490;7.860;2022-12-29T16:31:04;2.00;;;1.90;;
45867;SDS011;31582;45.490;7.860;2022-12-29T16:33:40;3.00;;;2.80;;
45867;SDS011;31582;45.490;7.860;2022-12-29T16:36:26;2.70;;;2.50;;
45867;SDS011;31582;45.490;7.860;2022-12-29T16:41:48;3.53;;;3.22;;
45867;SDS011;31582;45.490;7.860;2022-12-29T16:44:26;3.75;;;3.45;;
45867;SDS011;31582;45.490;7.860;2022-12-29T16:47:00;2.75;;;2.55;;
45867;SDS011;31582;45.490;7.860;2022-12-29T16:49:38;2.90;;;2.70;;
45867;SDS011;31582;45.490;7.860;2022-12-29T16:52:13;2.90;;;2.70;;
45867;SDS011;31582;45.490;7.860;2022-12-29T16:54:53;2.60;;;2.40;;
45867;SDS011;31582;45.490;7.860;2022-12-29T16:57:27;2.45;;;2.35;;
45867;SDS011;31582;45.490;7.860;2022-12-29T16:59:56;2.40;;;2.30;;
45867;SDS011;31582;45.490;7.860;2022-12-29T17:02:27;2.70;;;2.60;;
45867;SDS011;31582;45.490;7.860;2022-12-29T17:04:56;2.83;;;2.63;;
45867;SDS011;31582;45.490;7.860;2022-12-29T17:07:24;2.60;;;2.50;;
45867;SDS011;31582;45.490;7.860;2022-12-29T17:09:53;3.00;;;2.80;;
45867;SDS011;31582;45.490;7.860;2022-12-29T17:12:27;3.03;;;2.90;;
45867;SDS011;31582;45.490;7.860;2022-12-29T17:14:56;2.95;;;2.75;;
45867;SDS011;31582;45.490;7.860;2022-12-29T17:17:32;2.90;;;2.70;;
45867;SDS011;31582;45.490;7.860;2022-12-29T17:22:55;3.20;;;2.95;;
45867;SDS011;31582;45.490;7.860;2022-12-29T17:25:23;2.67;;;2.47;;
45867;SDS011;31582;45.490;7.860;2022-12-29T17:30:39;2.42;;;2.22;;
45867;SDS011;31582;45.490;7.860;2022-12-29T17:33:08;2.58;;;2.40;;
45867;SDS011;31582;45.490;7.860;2022-12-29T17:35:39;3.83;;;2.63;;
45867;SDS011;31582;45.490;7.860;2022-12-29T17:38:22;2.60;;;2.40;;
45867;SDS011;31582;45.490;7.860;2022-12-29T17:40:53;2.50;;;2.40;;
45867;SDS011;31582;45.490;7.860;2022-12-29T17:43:21;2.30;;;2.20;;
45867;SDS011;31582;45.490;7.860;2022-12-29T17:45:50;2.10;;;2.00;;
45867;SDS011;31582;45.490;7.860;2022-12-29T17:48:22;2.40;;;2.30;;
45867;SDS011;31582;45.490;7.860;2022-12-29T17:50:51;2.20;;;2.10;;
45867;SDS011;31582;45.490;7.860;2022-12-29T17:53:22;1.90;;;1.80;;
45867;SDS011;31582;45.490;7.860;2022-12-29T17:55:53;2.08;;;1.98;;
45867;SDS011;31582;45.490;7.860;2022-12-29T17:58:21;2.20;;;2.10;;
45867;SDS011;31582;45.490;7.860;2022-12-29T18:00:54;2.10;;;2.00;;
45867;SDS011;31582;45.490;7.860;2022-12-29T18:03:24;2.10;;;2.00;;
45867;SDS011;31582;45.490;7.860;2022-12-29T18:05:58;2.10;;;2.00;;
45867;SDS011;31582;45.490;7.860;2022-12-29T18:08:25;2.35;;;2.25;;
45867;SDS011;31582;45.490;7.860;2022-12-29T18:10:55;2.55;;;2.42;;
45867;SDS011;31582;45.490;7.860;2022-12-29T18:13:27;2.10;;;2.00;;
45867;SDS011;31582;45.490;7.860;2022-12-29T18:16:09;2.00;;;1.90;;
45867;SDS011;31582;45.490;7.860;2022-12-29T18:18:37;1.90;;;1.80;;
45867;SDS011;31582;45.490;7.860;2022-12-29T18:21:08;2.03;;;1.92;;
45867;SDS011;31582;45.490;7.860;2022-12-29T18:23:46;1.75;;;1.65;;
45867;SDS011;31582;45.490;7.860;2022-12-29T18:26:18;1.92;;;1.83;;
45867;SDS011;31582;45.490;7.860;2022-12-29T18:28:53;1.85;;;1.75;;
45867;SDS011;31582;45.490;7.860;2022-12-29T18:31:23;1.80;;;1.70;;
45867;SDS011;31582;45.490;7.860;2022-12-29T18:33:51;1.80;;;1.70;;
45867;SDS011;31582;45.490;7.860;2022-12-29T18:36:20;2.05;;;1.70;;
45867;SDS011;31582;45.490;7.860;2022-12-29T18:38:48;1.65;;;1.55;;
45867;SDS011;31582;45.490;7.860;2022-12-29T18:41:18;1.70;;;1.60;;
45867;SDS011;31582;45.490;7.860;2022-12-29T18:43:54;1.90;;;1.80;;
45867;SDS011;31582;45.490;7.860;2022-12-29T18:46:21;1.85;;;1.75;;
45867;SDS011;31582;45.490;7.860;2022-12-29T18:48:49;1.60;;;1.50;;
45867;SDS011;31582;45.490;7.860;2022-12-29T18:51:20;1.73;;;1.63;;
45867;SDS011;31582;45.490;7.860;2022-12-29T18:53:51;1.83;;;1.73;;
45867;SDS011;31582;45.490;7.860;2022-12-29T18:56:22;1.67;;;1.58;;
45867;SDS011;31582;45.490;7.860;2022-12-29T18:58:51;1.70;;;1.60;;
45867;SDS011;31582;45.490;7.860;2022-12-29T19:01:23;1.70;;;1.60;;
45867;SDS011;31582;45.490;7.860;2022-12-29T19:03:53;1.90;;;1.80;;
45867;SDS011;31582;45.490;7.860;2022-12-29T19:06:21;1.98;;;1.88;;
45867;SDS011;31582;45.490;7.860;2022-12-29T19:08:49;1.80;;;1.70;;
45867;SDS011;31582;45.490;7.860;2022-12-29T19:11:17;2.22;;;2.13;;
45867;SDS011;31582;45.490;7.860;2022-12-29T19:13:44;1.80;;;1.70;;
45867;SDS011;31582;45.490;7.860;2022-12-29T19:16:13;1.70;;;1.60;;
45867;SDS011;31582;45.490;7.860;2022-12-29T19:18:46;1.90;;;1.80;;